Time,TemperatureF,DewpointF,PressureIn,WindDirection,WindDirectionDegrees,WindSpeedMPH,WindSpeedGustMPH,Humidity,HourlyPrecipIn,Conditions,Clouds,dailyrainin,SoftwareType,DateUTC
2013-02-22 00:02:00,24.0,16.0,-100.00,ENE,72,0.0,8.0,68,0.00,,,-99.99,,2013-02-22 05:02:00,
2013-02-22 00:12:00,26.0,19.0,-100.00,ENE,72,0.0,8.0,69,0.00,,,-99.99,,2013-02-22 05:12:00,
2013-02-22 00:22:00,26.0,18.0,-100.00,ENE,72,0.0,0.0,69,0.00,,,-99.99,,2013-02-22 05:22:00,
2013-02-22 00:32:00,23.0,16.0,-100.00,ENE,72,0.0,0.0,69,0.00,,,-99.99,,2013-02-22 05:32:00,
2013-02-22 00:42:00,24.0,16.0,-100.00,ENE,72,0.0,0.0,69,0.00,,,-99.99,,2013-02-22 05:42:00,
2013-02-22 00:52:00,24.0,16.0,-100.00,ENE,72,0.0,0.0,68,0.00,,,-99.99,,2013-02-22 05:52:00,
2013-02-22 01:02:00,25.0,16.0,-100.00,ENE,72,0.0,0.0,68,0.00,,,-99.99,,2013-02-22 06:02:00,
2013-02-22 01:12:00,24.0,16.0,-100.00,ENE,73,0.0,0.0,68,0.00,,,-99.99,,2013-02-22 06:12:00,
2013-02-22 01:22:00,24.0,16.0,-100.00,ENE,72,0.0,0.0,68,0.55,,,-99.99,,2013-02-22 06:22:00,
2013-02-22 01:32:00,24.0,16.0,-100.00,ENE,72,0.0,0.0,69,0.55,,,-99.99,,2013-02-22 06:32:00,
2013-02-22 01:42:00,24.0,16.0,-100.00,ENE,73,0.0,0.0,69,0.00,,,-99.99,,2013-02-22 06:42:00,
2013-02-22 01:51:00,24.0,16.0,-100.00,ENE,72,0.0,0.0,69,0.00,,,-99.99,,2013-02-22 06:51:00,
2013-02-22 02:01:00,25.0,18.0,-100.00,ENE,73,0.0,0.0,71,0.00,,,-99.99,,2013-02-22 07:01:00,
2013-02-22 02:11:00,24.0,19.0,-100.00,ENE,72,0.0,0.0,75,0.00,,,-99.99,,2013-02-22 07:11:00,
2013-02-22 02:21:00,25.0,19.0,-100.00,ENE,72,0.0,0.0,75,0.00,,,-99.99,,2013-02-22 07:21:00,
2013-02-22 02:32:00,24.0,19.0,-100.00,ENE,72,0.0,0.0,76,0.55,,,-99.99,,2013-02-22 07:32:00,
2013-02-22 02:42:00,25.0,19.0,-100.00,ENE,72,0.0,0.0,76,2.28,,,-99.99,,2013-02-22 07:42:00,
2013-02-22 02:51:00,25.0,19.0,-100.00,ENE,72,0.0,0.0,77,11.89,,,-99.99,,2013-02-22 07:51:00,
2013-02-22 03:01:00,25.0,21.0,-100.00,ENE,72,0.0,0.0,80,1.14,,,-99.99,,2013-02-22 08:01:00,
2013-02-22 03:11:00,25.0,21.0,-100.00,ENE,72,0.0,0.0,78,0.00,,,-99.99,,2013-02-22 08:11:00,
2013-02-22 03:21:00,24.0,21.0,-100.00,ENE,73,0.0,0.0,81,0.00,,,-99.99,,2013-02-22 08:21:00,
2013-02-22 03:32:00,24.0,21.0,-100.00,ENE,72,0.0,0.0,81,1.69,,,-99.99,,2013-02-22 08:32:00,
2013-02-22 03:42:00,24.0,21.0,-100.00,ENE,73,0.0,0.0,81,2.83,,,-99.99,,2013-02-22 08:42:00,
2013-02-22 03:52:00,24.0,21.0,-100.00,ENE,73,0.0,0.0,84,3.39,,,-99.99,,2013-02-22 08:52:00,
2013-02-22 04:03:00,25.0,21.0,-100.00,ENE,72,0.0,0.0,84,1.69,,,-99.99,,2013-02-22 09:03:00,
2013-02-22 04:11:00,25.0,21.0,-100.00,ENE,73,0.0,0.0,85,0.00,,,-99.99,,2013-02-22 09:11:00,
2013-02-22 04:21:00,24.0,21.0,-100.00,ENE,72,0.0,0.0,86,0.00,,,-99.99,,2013-02-22 09:21:00,
2013-02-22 04:32:00,24.0,21.0,-100.00,ENE,73,0.0,0.0,86,0.00,,,-99.99,,2013-02-22 09:32:00,
2013-02-22 04:42:00,24.0,21.0,-100.00,ENE,73,0.0,0.0,88,0.00,,,-99.99,,2013-02-22 09:42:00,
2013-02-22 04:51:00,24.0,21.0,-100.00,ENE,73,0.0,0.0,86,0.00,,,-99.99,,2013-02-22 09:51:00,
2013-02-22 05:01:00,24.0,21.0,-100.00,ENE,72,0.0,0.0,86,0.00,,,-99.99,,2013-02-22 10:01:00,
2013-02-22 05:11:00,24.0,23.0,-100.00,ENE,72,0.0,0.0,88,0.00,,,-99.99,,2013-02-22 10:11:00,
2013-02-22 05:21:00,24.0,21.0,-100.00,ENE,73,0.0,0.0,88,0.00,,,-99.99,,2013-02-22 10:21:00,
2013-02-22 05:32:00,24.0,23.0,-100.00,ENE,73,0.0,0.0,89,0.00,,,-99.99,,2013-02-22 10:32:00,
2013-02-22 05:42:00,26.0,25.0,-100.00,ENE,73,0.0,0.0,89,0.00,,,-99.99,,2013-02-22 10:42:00,
2013-02-22 05:51:00,27.0,25.0,-100.00,ENE,73,0.0,0.0,89,0.00,,,-99.99,,2013-02-22 10:51:00,
2013-02-22 06:01:00,27.0,25.0,-100.00,ENE,73,0.0,0.0,89,0.00,,,-99.99,,2013-02-22 11:01:00,
2013-02-22 06:11:00,25.0,23.0,-100.00,ENE,73,0.0,0.0,89,0.00,,,-99.99,,2013-02-22 11:11:00,
2013-02-22 06:21:00,25.0,23.0,-100.00,ENE,73,0.0,0.0,89,5.67,,,-99.99,,2013-02-22 11:21:00,
2013-02-22 06:32:00,25.0,23.0,-100.00,ENE,73,0.0,0.0,90,3.39,,,-99.99,,2013-02-22 11:32:00,
2013-02-22 06:42:00,25.0,25.0,-100.00,ENE,73,0.0,0.0,91,3.39,,,-99.99,,2013-02-22 11:42:00,
2013-02-22 06:52:00,25.0,25.0,-100.00,ENE,73,0.0,0.0,94,3.39,,,-99.99,,2013-02-22 11:52:00,
2013-02-22 07:02:00,25.0,25.0,-100.00,ENE,72,0.0,0.0,95,0.00,,,-99.99,,2013-02-22 12:02:00,
2013-02-22 07:11:00,27.0,27.0,-100.00,ENE,73,0.0,0.0,97,0.00,,,-99.99,,2013-02-22 12:11:00,
2013-02-22 07:22:00,27.0,27.0,-100.00,ENE,73,0.0,0.0,97,0.00,,,-99.99,,2013-02-22 12:22:00,
2013-02-22 07:42:00,28.0,28.0,-100.00,ENE,73,0.0,0.0,99,0.00,,,-99.99,,2013-02-22 12:42:00,
2013-02-22 08:02:00,28.0,28.0,-100.00,ENE,73,0.0,0.0,99,0.00,,,-99.99,,2013-02-22 13:02:00,
2013-02-22 08:11:00,28.0,28.0,-100.00,ENE,73,0.0,0.0,100,0.00,,,-99.99,,2013-02-22 13:11:00,
2013-02-22 08:22:00,28.0,28.0,-100.00,ENE,72,0.0,0.0,100,0.00,,,-99.99,,2013-02-22 13:22:00,
2013-02-22 12:42:00,32.0,32.0,-100.00,ENE,72,0.0,0.0,98,0.00,,,-99.99,,2013-02-22 17:42:00,
2013-02-22 12:52:00,32.0,32.0,-100.00,ENE,73,0.0,0.0,98,0.00,,,-99.99,,2013-02-22 17:52:00,
2013-02-22 13:02:00,36.0,36.0,-100.00,ENE,62,1.0,1.0,98,0.00,,,-99.99,,2013-02-22 18:02:00,
2013-02-22 13:12:00,36.0,34.0,-100.00,East,83,2.0,4.0,94,0.00,,,-99.99,,2013-02-22 18:12:00,
2013-02-22 13:22:00,37.0,34.0,-100.00,ENE,62,1.0,4.0,93,0.00,,,-99.99,,2013-02-22 18:22:00,
2013-02-22 13:32:00,38.0,34.0,-100.00,ENE,62,4.0,6.0,88,0.00,,,-99.99,,2013-02-22 18:32:00,
2013-02-22 13:42:00,38.0,34.0,-100.00,ENE,63,2.0,6.0,89,0.00,,,-99.99,,2013-02-22 18:42:00,
2013-02-22 13:51:00,38.0,34.0,-100.00,ENE,72,2.0,6.0,89,0.00,,,-99.99,,2013-02-22 18:51:00,
2013-02-22 14:01:00,38.0,36.0,-100.00,ENE,62,1.0,6.0,90,0.00,,,-99.99,,2013-02-22 19:01:00,
2013-02-22 14:11:00,38.0,34.0,-100.00,ENE,63,2.0,6.0,91,0.00,,,-99.99,,2013-02-22 19:11:00,
2013-02-22 14:21:00,38.0,34.0,-100.00,ENE,63,6.0,12.0,91,0.00,,,-99.99,,2013-02-22 19:21:00,
2013-02-22 14:31:00,38.0,36.0,-100.00,East,83,6.0,12.0,93,0.00,,,-99.99,,2013-02-22 19:31:00,
2013-02-22 14:41:00,37.0,34.0,-100.00,ENE,66,8.0,12.0,94,0.00,,,-99.99,,2013-02-22 19:41:00,
2013-02-22 14:52:00,36.0,34.0,-100.00,ENE,74,6.0,12.0,95,0.00,,,-99.99,,2013-02-22 19:52:00,
2013-02-22 15:01:00,36.0,34.0,-100.00,ENE,67,7.0,12.0,95,0.00,,,-99.99,,2013-02-22 20:01:00,
2013-02-22 15:11:00,36.0,34.0,-100.00,ENE,63,8.0,12.0,97,0.00,,,-99.99,,2013-02-22 20:11:00,
2013-02-22 15:21:00,35.0,34.0,-100.00,ENE,74,6.0,12.0,97,0.00,,,-99.99,,2013-02-22 20:21:00,
2013-02-22 15:32:00,35.0,34.0,-100.00,ENE,70,6.0,12.0,95,0.00,,,-99.99,,2013-02-22 20:32:00,
2013-02-22 15:42:00,35.0,32.0,-100.00,ENE,74,7.0,12.0,94,0.00,,,-99.99,,2013-02-22 20:42:00,
2013-02-22 15:52:00,35.0,32.0,-100.00,East,83,5.0,12.0,94,0.00,,,-99.99,,2013-02-22 20:52:00,
2013-02-22 16:02:00,35.0,32.0,-100.00,ENE,67,5.0,12.0,94,0.00,,,-99.99,,2013-02-22 21:02:00,
2013-02-22 16:11:00,36.0,32.0,-100.00,ENE,72,3.0,12.0,90,0.00,,,-99.99,,2013-02-22 21:11:00,
2013-02-22 16:21:00,35.0,32.0,-100.00,ENE,63,3.0,12.0,90,0.00,,,-99.99,,2013-02-22 21:21:00,
2013-02-22 16:32:00,36.0,32.0,-100.00,ENE,72,2.0,12.0,91,0.00,,,-99.99,,2013-02-22 21:32:00,
2013-02-22 16:42:00,35.0,32.0,-100.00,ENE,62,2.0,12.0,91,0.00,,,-99.99,,2013-02-22 21:42:00,
2013-02-22 16:52:00,36.0,32.0,-100.00,ENE,72,1.0,12.0,91,0.00,,,-99.99,,2013-02-22 21:52:00,
2013-02-22 17:01:00,36.0,32.0,-100.00,ENE,63,0.0,12.0,91,0.00,,,-99.99,,2013-02-22 22:01:00,
2013-02-22 17:11:00,36.0,32.0,-100.00,East,81,1.0,12.0,90,0.00,,,-99.99,,2013-02-22 22:11:00,
2013-02-22 17:21:00,35.0,32.0,-100.00,ENE,72,0.0,12.0,89,0.00,,,-99.99,,2013-02-22 22:21:00,
2013-02-22 17:32:00,36.0,32.0,-100.00,ENE,72,0.0,12.0,88,0.00,,,-99.99,,2013-02-22 22:32:00,
2013-02-22 17:42:00,36.0,32.0,-100.00,ENE,72,0.0,12.0,88,0.00,,,-99.99,,2013-02-22 22:42:00,
2013-02-22 17:51:00,37.0,32.0,-100.00,ENE,72,0.0,12.0,88,0.00,,,-99.99,,2013-02-22 22:51:00,
2013-02-22 18:01:00,36.0,32.0,-100.00,East,81,0.0,12.0,88,0.00,,,-99.99,,2013-02-22 23:01:00,
2013-02-22 18:11:00,36.0,32.0,-100.00,ENE,72,0.0,12.0,88,0.00,,,-99.99,,2013-02-22 23:11:00,
2013-02-22 18:21:00,36.0,32.0,-100.00,ENE,72,0.0,12.0,88,0.00,,,-99.99,,2013-02-22 23:21:00,
2013-02-22 18:32:00,36.0,32.0,-100.00,ENE,72,0.0,12.0,88,0.00,,,-99.99,,2013-02-22 23:32:00,
2013-02-22 18:42:00,36.0,32.0,-100.00,ENE,72,0.0,12.0,88,0.00,,,-99.99,,2013-02-22 23:42:00,
2013-02-22 18:52:00,37.0,32.0,-100.00,ENE,72,0.0,12.0,88,0.00,,,-99.99,,2013-02-22 23:52:00,
2013-02-22 19:02:00,36.0,32.0,-100.00,ENE,72,0.0,12.0,88,0.00,,,-99.99,,2013-02-23 00:02:00,
2013-02-22 19:11:00,35.0,32.0,-100.00,ENE,72,0.0,12.0,88,0.00,,,-99.99,,2013-02-23 00:11:00,
2013-02-22 19:21:00,36.0,32.0,-100.00,ENE,72,0.0,12.0,88,0.00,,,-99.99,,2013-02-23 00:21:00,
2013-02-22 19:32:00,36.0,32.0,-100.00,ENE,72,0.0,12.0,89,0.00,,,-99.99,,2013-02-23 00:32:00,
2013-02-22 19:42:00,35.0,32.0,-100.00,ENE,72,1.0,12.0,90,0.00,,,-99.99,,2013-02-23 00:42:00,
2013-02-22 19:51:00,35.0,32.0,-100.00,ENE,72,0.0,12.0,90,0.00,,,-99.99,,2013-02-23 00:51:00,
2013-02-22 20:01:00,35.0,32.0,-100.00,ENE,72,0.0,12.0,90,0.00,,,-99.99,,2013-02-23 01:01:00,
2013-02-22 20:11:00,34.0,32.0,-100.00,ENE,72,1.0,12.0,91,0.00,,,-99.99,,2013-02-23 01:11:00,
2013-02-22 20:21:00,35.0,32.0,-100.00,ENE,72,0.0,12.0,91,0.00,,,-99.99,,2013-02-23 01:21:00,
2013-02-22 20:32:00,34.0,32.0,-100.00,ENE,72,0.0,12.0,93,0.00,,,-99.99,,2013-02-23 01:32:00,
2013-02-22 20:42:00,34.0,32.0,-100.00,ENE,72,0.0,12.0,91,0.00,,,-99.99,,2013-02-23 01:42:00,
2013-02-22 20:51:00,35.0,32.0,-100.00,ENE,72,0.0,12.0,89,0.00,,,-99.99,,2013-02-23 01:51:00,
2013-02-22 21:01:00,35.0,32.0,-100.00,ENE,72,0.0,12.0,89,0.00,,,-99.99,,2013-02-23 02:01:00,
2013-02-22 21:11:00,34.0,32.0,-100.00,ENE,72,0.0,12.0,88,0.00,,,-99.99,,2013-02-23 02:11:00,
2013-02-22 21:21:00,35.0,32.0,-100.00,ENE,73,0.0,12.0,86,0.00,,,-99.99,,2013-02-23 02:21:00,
2013-02-22 21:32:00,35.0,32.0,-100.00,ENE,72,0.0,12.0,88,0.00,,,-99.99,,2013-02-23 02:32:00,
2013-02-22 21:42:00,36.0,32.0,-100.00,ENE,72,0.0,12.0,88,0.00,,,-99.99,,2013-02-23 02:42:00,
2013-02-22 21:52:00,34.0,32.0,-100.00,ENE,72,0.0,12.0,88,0.00,,,-99.99,,2013-02-23 02:52:00,
2013-02-22 22:02:00,37.0,34.0,-100.00,ENE,72,0.0,12.0,89,0.00,,,-99.99,,2013-02-23 03:02:00,
2013-02-22 22:11:00,37.0,32.0,-100.00,ENE,72,0.0,12.0,88,0.00,,,-99.99,,2013-02-23 03:11:00,
2013-02-22 22:21:00,37.0,32.0,-100.00,ENE,72,0.0,12.0,88,0.00,,,-99.99,,2013-02-23 03:21:00,
2013-02-22 22:32:00,37.0,32.0,-100.00,ENE,72,0.0,12.0,88,0.00,,,-99.99,,2013-02-23 03:32:00,
2013-02-22 22:42:00,37.0,32.0,-100.00,ENE,72,0.0,12.0,88,0.00,,,-99.99,,2013-02-23 03:42:00,
2013-02-22 22:51:00,37.0,32.0,-100.00,ENE,72,0.0,12.0,88,0.00,,,-99.99,,2013-02-23 03:51:00,
2013-02-22 23:01:00,37.0,34.0,-100.00,ENE,72,0.0,12.0,90,0.00,,,-99.99,,2013-02-23 04:01:00,
2013-02-22 23:11:00,37.0,34.0,-100.00,ENE,72,0.0,12.0,89,0.00,,,-99.99,,2013-02-23 04:11:00,
2013-02-22 23:21:00,36.0,32.0,-100.00,ENE,72,0.0,12.0,91,0.00,,,-99.99,,2013-02-23 04:21:00,
2013-02-22 23:32:00,35.0,32.0,-100.00,ENE,72,0.0,12.0,93,0.00,,,-99.99,,2013-02-23 04:32:00,
2013-02-22 23:42:00,35.0,32.0,-100.00,ENE,73,0.0,12.0,94,0.00,,,-99.99,,2013-02-23 04:42:00,
2013-02-22 23:51:00,35.0,34.0,-100.00,ENE,72,0.0,12.0,95,0.00,,,-99.99,,2013-02-23 04:51:00,